Time;durP1;ratioP1;P1;durP2;ratioP2;P2;SDS_P1;SDS_P2;PMS_P1;PMS_P2;Temp;Humidity;BMP_temperature;BMP_pressure;BME280_temperature;BME280_humidity;BME280_pressure;Samples;Min_cycle;Max_cycle;Signal;HPM_P1;HPM_P2
2022/06/14 00:01:15;;;;;;;4.95;2.30;;;;;;;8.33;100.00;102438.22;5205896;28;20024;-71
2022/06/14 00:03:46;;;;;;;5.28;2.42;;;;;;;8.29;100.00;102445.66;5207549;28;20026;-70
2022/06/14 00:06:20;;;;;;;9.02;3.22;;;;;;;8.22;100.00;102440.84;5214463;28;20033;-70
2022/06/14 00:08:51;;;;;;;4.85;2.92;;;;;;;8.18;100.00;102442.91;5215156;28;20025;-70
2022/06/14 00:11:25;;;;;;;5.40;2.65;;;;;;;8.15;100.00;102444.94;5209282;28;20028;-70
2022/06/14 00:13:58;;;;;;;6.00;3.05;;;;;;;8.10;100.00;102441.75;5209137;28;20026;-69
2022/06/14 00:16:31;;;;;;;10.80;2.95;;;;;;;8.05;100.00;102442.09;5211461;28;20017;-69
2022/06/14 00:19:04;;;;;;;10.23;3.50;;;;;;;8.03;100.00;102449.34;5223628;28;20029;-70
2022/06/14 00:21:36;;;;;;;8.57;3.05;;;;;;;7.98;100.00;102447.03;5214331;28;20079;-70
2022/06/14 00:24:07;;;;;;;8.82;3.33;;;;;;;7.88;100.00;102451.31;5206775;28;20026;-70
2022/06/14 00:26:37;;;;;;;7.70;3.75;;;;;;;7.81;100.00;102447.38;5208517;28;20045;-69
2022/06/14 00:29:08;;;;;;;17.35;3.60;;;;;;;7.77;100.00;102448.53;5213477;28;20025;-69
2022/06/14 00:31:38;;;;;;;10.77;4.15;;;;;;;7.78;100.00;102440.44;5222207;28;20054;-69
2022/06/14 00:34:09;;;;;;;8.65;3.42;;;;;;;7.77;100.00;102440.53;5212863;28;20029;-68
2022/06/14 00:36:51;;;;;;;9.02;3.30;;;;;;;7.73;100.00;102434.56;5206658;28;20264;-69
2022/06/14 00:39:22;;;;;;;6.93;3.55;;;;;;;7.68;100.00;102427.81;5215528;28;20029;-69
2022/06/14 00:41:55;;;;;;;10.85;3.40;;;;;;;7.65;100.00;102433.41;5212891;28;20096;-69
2022/06/14 00:44:28;;;;;;;7.65;3.30;;;;;;;7.64;100.00;102429.03;5206467;28;20025;-69
2022/06/14 00:46:59;;;;;;;12.45;3.60;;;;;;;7.64;100.00;102426.34;5206393;28;20029;-70
2022/06/14 00:49:38;;;;;;;9.32;3.45;;;;;;;7.65;100.00;102420.03;5206073;28;20029;-69
2022/06/14 00:52:18;;;;;;;10.27;3.17;;;;;;;7.66;100.00;102413.72;5206316;28;20018;-71
2022/06/14 00:54:54;;;;;;;6.95;3.10;;;;;;;7.63;100.00;102416.59;5211714;28;20111;-69
2022/06/14 00:57:29;;;;;;;6.65;3.88;;;;;;;7.60;100.00;102419.50;5213396;28;20370;-70
2022/06/14 01:00:06;;;;;;;9.68;3.25;;;;;;;7.55;100.00;102417.16;5206487;28;20017;-69
2022/06/14 01:02:43;;;;;;;11.48;3.40;;;;;;;7.54;100.00;102423.47;5209470;28;20420;-69
2022/06/14 01:05:21;;;;;;;8.18;3.55;;;;;;;7.55;100.00;102424.34;5217735;28;20048;-70
2022/06/14 01:07:57;;;;;;;7.97;3.40;;;;;;;7.53;100.00;102419.09;5206844;28;20074;-69
2022/06/14 01:10:30;;;;;;;;;;;;;;;7.50;100.00;102422.84;5206376;28;20045;-69
2022/06/14 01:13:03;;;;;;;15.10;4.13;;;;;;;7.51;100.00;102419.19;5206496;28;20035;-69
2022/06/14 01:15:34;;;;;;;5.15;2.95;;;;;;;7.54;100.00;102412.78;5209217;28;20028;-69
2022/06/14 01:18:09;;;;;;;7.32;3.42;;;;;;;7.56;100.00;102416.19;5224614;28;20028;-70
2022/06/14 01:20:41;;;;;;;10.23;4.00;;;;;;;7.57;100.00;102401.88;5211370;28;20029;-69
2022/06/14 01:23:16;;;;;;;7.13;3.35;;;;;;;7.58;100.00;102402.72;5205920;28;20443;-71
2022/06/14 01:25:53;;;;;;;8.00;4.00;;;;;;;7.59;100.00;102393.78;5205901;28;20451;-70
2022/06/14 01:28:26;;;;;;;7.25;3.20;;;;;;;7.59;100.00;102396.44;5208149;28;20060;-69
2022/06/14 01:30:57;;;;;;;5.82;3.30;;;;;;;7.52;100.00;102393.34;5216277;28;20061;-69
2022/06/14 01:33:35;;;;;;;7.05;4.50;;;;;;;7.44;100.00;102398.38;5215660;28;20053;-69
2022/06/14 01:36:10;;;;;;;11.55;3.67;;;;;;;7.37;100.00;102392.59;5205867;28;20021;-69
2022/06/14 01:38:44;;;;;;;13.00;5.57;;;;;;;7.29;100.00;102389.63;5205828;28;20025;-68
2022/06/14 01:41:27;;;;;;;10.75;3.95;;;;;;;7.20;100.00;102392.94;5213969;28;20483;-69
2022/06/14 01:44:27;;;;;;;9.07;4.10;;;;;;;7.15;100.00;102387.06;5218386;28;20116;-70
2022/06/14 01:47:22;;;;;;;11.07;4.25;;;;;;;7.10;100.00;102383.88;5216276;28;20041;-71
2022/06/14 01:53:36;;;;;;;9.77;4.30;;;;;;;7.05;100.00;102381.50;5205232;28;20573;-70
2022/06/14 01:56:45;;;;;;;6.97;3.58;;;;;;;7.04;100.00;102373.63;5216361;28;20101;-69
2022/06/14 01:59:20;;;;;;;9.85;4.13;;;;;;;6.99;100.00;102374.78;5214443;28;20029;-69
2022/06/14 02:02:11;;;;;;;10.43;3.88;;;;;;;6.96;100.00;102364.31;5209647;28;20425;-69
2022/06/14 02:04:51;;;;;;;7.35;4.00;;;;;;;6.96;100.00;102363.47;5204678;28;20049;-69
2022/06/14 02:07:42;;;;;;;8.75;4.15;;;;;;;6.93;100.00;102364.53;5210017;28;20025;-70
2022/06/14 02:10:35;;;;;;;10.70;4.43;;;;;;;6.88;100.00;102361.34;5219885;28;20017;-69
2022/06/14 02:13:37;;;;;;;12.45;4.30;;;;;;;6.81;100.00;102364.50;5208411;28;20088;-72
2022/06/14 02:16:17;;;;;;;11.07;4.63;;;;;;;6.78;100.00;102360.25;5209933;28;20025;-70
2022/06/14 02:19:22;;;;;;;8.15;4.40;;;;;;;6.74;100.00;102351.59;5209968;28;20088;-69
2022/06/14 02:22:02;;;;;;;10.13;4.28;;;;;;;6.69;100.00;102353.72;5204905;28;20478;-70
2022/06/14 02:24:48;;;;;;;9.82;4.32;;;;;;;6.68;100.00;102362.69;5204573;28;20025;-69
2022/06/14 02:27:29;;;;;;;11.82;5.18;;;;;;;6.66;100.00;102353.06;5209920;28;20049;-69
2022/06/14 02:30:06;;;;;;;8.20;4.20;;;;;;;6.60;100.00;102356.16;5210269;28;20029;-70
2022/06/14 02:32:56;;;;;;;8.75;3.75;;;;;;;6.53;100.00;102354.88;5207722;28;20544;-70
2022/06/14 02:35:49;;;;;;;10.85;4.60;;;;;;;6.48;100.00;102352.53;5205570;28;20025;-69
2022/06/14 02:38:51;;;;;;;8.75;4.43;;;;;;;6.46;100.00;102346.41;5207604;28;20036;-69
2022/06/14 02:41:40;;;;;;;9.93;4.53;;;;;;;6.46;100.00;102349.94;5205781;28;20017;-69
2022/06/14 02:44:20;;;;;;;9.35;4.63;;;;;;;6.46;100.00;102349.09;5211152;28;20038;-71
2022/06/14 02:46:58;;;;;;;10.95;5.00;;;;;;;6.45;100.00;102356.22;5204733;28;20071;-69
2022/06/14 02:49:46;;;;;;;8.80;4.50;;;;;;;6.39;100.00;102356.66;5213280;28;20111;-70
2022/06/14 02:52:16;;;;;;;11.23;5.28;;;;;;;6.35;100.00;102355.13;5219322;28;20021;-69
2022/06/14 02:54:58;;;;;;;12.90;4.40;;;;;;;6.32;100.00;102347.34;5211551;28;20099;-68
2022/06/14 02:57:50;;;;;;;11.85;4.75;;;;;;;6.29;100.00;102358.22;5211123;28;20056;-68
2022/06/14 03:00:26;;;;;;;14.68;5.15;;;;;;;6.28;100.00;102355.66;5211063;28;20076;-68
2022/06/14 03:03:06;;;;;;;10.82;4.93;;;;;;;6.25;100.00;102356.72;5210744;28;20602;-68
2022/06/14 03:05:43;;;;;;;9.40;5.32;;;;;;;6.24;100.00;102347.00;5203964;28;20025;-67
2022/06/14 03:08:21;;;;;;;13.00;4.60;;;;;;;6.21;100.00;102356.03;5206451;28;20060;-68
2022/06/14 03:10:59;;;;;;;5.60;4.00;;;;;;;6.17;100.00;102351.88;5213408;28;20021;-68
2022/06/14 03:13:37;;;;;;;4.72;1.98;;;;;;;6.15;100.00;102359.13;5209071;28;20033;-68
2022/06/14 03:16:27;;;;;;;7.90;2.92;;;;;;;6.10;100.00;102363.03;5209316;28;20487;-68
2022/06/14 03:19:03;;;;;;;8.27;3.80;;;;;;;6.03;100.00;102359.94;5213598;28;20040;-68
2022/06/14 03:21:52;;;;;;;8.60;4.07;;;;;;;5.99;100.00;102362.91;5208785;28;20027;-68
2022/06/14 03:24:39;;;;;;;9.90;4.75;;;;;;;5.96;100.00;102362.13;5209548;28;20052;-68
2022/06/14 03:27:47;;;;;;;10.98;4.40;;;;;;;5.96;100.00;102370.13;5204612;28;20022;-68
2022/06/14 03:30:20;;;;;;;8.85;4.45;;;;;;;5.97;100.00;102368.31;5204185;28;20044;-68
2022/06/14 03:32:58;;;;;;;10.82;4.63;;;;;;;5.97;100.00;102366.53;5204383;28;20033;-68
2022/06/14 03:35:47;;;;;;;10.35;4.45;;;;;;;6.01;100.00;102368.97;5203700;28;20037;-68
2022/06/14 03:38:25;;;;;;;9.38;4.50;;;;;;;5.98;100.00;102367.38;5207345;28;20104;-68
2022/06/14 03:40:56;;;;;;;9.38;4.05;;;;;;;5.95;100.00;102368.41;5208934;28;20108;-68
2022/06/14 03:43:27;;;;;;;8.27;3.78;;;;;;;5.92;100.00;102376.63;5209976;28;20132;-68
2022/06/14 03:46:25;;;;;;;7.70;4.18;;;;;;;5.97;100.00;102368.31;5205311;28;20029;-68
2022/06/14 03:49:03;;;;;;;11.38;4.82;;;;;;;6.01;100.00;102374.28;5208049;28;20037;-68
2022/06/14 03:51:40;;;;;;;12.90;3.97;;;;;;;6.03;100.00;102373.25;5218295;28;20021;-68
2022/06/14 03:54:35;;;;;;;8.25;3.88;;;;;;;6.10;100.00;102365.72;5204593;28;20095;-68
2022/06/14 03:57:39;;;;;;;11.85;3.88;;;;;;;6.10;100.00;102371.03;5207546;28;20040;-68
2022/06/14 04:00:36;;;;;;;7.70;3.38;;;;;;;6.10;100.00;102363.03;5205423;28;20029;-68
2022/06/14 04:03:32;;;;;;;4.88;3.30;;;;;;;6.09;100.00;102367.53;5208098;28;20025;-68
2022/06/14 04:06:29;;;;;;;6.72;3.72;;;;;;;6.11;100.00;102370.06;5208907;28;20116;-68
2022/06/14 04:09:18;;;;;;;7.35;3.55;;;;;;;6.13;100.00;102365.53;5209684;28;20054;-68
2022/06/14 04:12:15;;;;;;;7.57;3.85;;;;;;;6.16;100.00;102368.81;5205331;28;20025;-68
2022/06/14 04:15:18;;;;;;;6.55;4.13;;;;;;;6.23;100.00;102369.28;5202014;28;20013;-68
2022/06/14 04:18:34;;;;;;;9.05;4.57;;;;;;;6.33;100.00;102365.06;5216569;28;20433;-68
2022/06/14 04:21:09;;;;;;;10.45;4.82;;;;;;;6.40;100.00;102366.34;5211465;28;20405;-68
2022/06/14 04:23:49;;;;;;;10.18;4.80;;;;;;;6.47;100.00;102367.63;5208734;28;20370;-68
2022/06/14 04:26:53;;;;;;;8.90;4.22;;;;;;;6.53;100.00;102360.22;5202800;28;20033;-68
2022/06/14 04:30:01;;;;;;;10.23;4.65;;;;;;;6.59;100.00;102367.78;5206395;28;20104;-68
2022/06/14 04:32:46;;;;;;;8.70;4.40;;;;;;;6.61;100.00;102365.88;5212086;28;20040;-68
2022/06/14 04:35:24;;;;;;;9.83;5.60;;;;;;;6.64;100.00;102365.66;5208882;28;20056;-68
2022/06/14 04:38:03;;;;;;;11.50;5.05;;;;;;;6.71;100.00;102370.47;5212005;28;20498;-68
2022/06/14 04:40:40;;;;;;;7.78;4.32;;;;;;;6.81;100.00;102381.38;5208748;28;20022;-68
2022/06/14 04:43:17;;;;;;;10.75;4.80;;;;;;;6.94;100.00;102379.59;5206505;28;20029;-68
2022/06/14 04:45:56;;;;;;;8.10;4.82;;;;;;;7.06;100.00;102371.69;5206594;28;20437;-68
2022/06/14 04:48:52;;;;;;;14.20;6.25;;;;;;;7.20;100.00;102376.94;5213166;28;20033;-68
2022/06/14 04:51:29;;;;;;;10.43;6.15;;;;;;;7.33;100.00;102379.56;5215670;28;20521;-69
2022/06/14 04:54:08;;;;;;;11.55;5.63;;;;;;;7.43;100.00;102381.50;5209305;28;20021;-68
2022/06/14 04:56:48;;;;;;;11.68;5.03;;;;;;;7.54;100.00;102380.75;5206252;28;20037;-68
2022/06/14 04:59:26;;;;;;;11.77;5.20;;;;;;;7.65;100.00;102377.31;5206183;28;20083;-69
2022/06/14 05:02:02;;;;;;;15.60;5.65;;;;;;;7.76;100.00;102388.06;5213375;28;20368;-69
2022/06/14 05:04:40;;;;;;;10.98;5.43;;;;;;;7.87;100.00;102387.28;5206117;28;20395;-68
2022/06/14 05:07:29;;;;;;;12.57;5.53;;;;;;;7.99;100.00;102381.91;5206488;28;20090;-69
2022/06/14 05:10:06;;;;;;;13.60;6.30;;;;;;;8.13;100.00;102378.22;5208165;28;20049;-68
2022/06/14 05:12:45;;;;;;;17.80;6.72;;;;;;;8.26;100.00;102376.34;5215513;28;20028;-68
2022/06/14 05:15:36;;;;;;;15.85;6.47;;;;;;;8.40;100.00;102377.19;5206109;28;20037;-68
2022/06/14 05:18:15;;;;;;;14.32;6.72;;;;;;;8.56;100.00;102375.91;5210606;28;20044;-68
2022/06/14 05:20:53;;;;;;;16.63;6.93;;;;;;;8.74;100.00;102378.16;5215676;28;20108;-68
2022/06/14 05:23:26;;;;;;;13.52;6.28;;;;;;;8.88;100.00;102375.25;5206007;28;20383;-68
2022/06/14 05:26:10;;;;;;;22.38;8.30;;;;;;;9.05;100.00;102373.97;5205546;28;20088;-69
2022/06/14 05:29:06;;;;;;;23.30;8.10;;;;;;;9.21;100.00;102377.16;5205618;28;20138;-68
2022/06/14 05:32:13;;;;;;;20.95;7.93;;;;;;;9.40;100.00;102376.56;5218815;28;20479;-69
2022/06/14 05:34:59;;;;;;;22.58;7.07;;;;;;;9.60;100.00;102380.34;5205427;28;20025;-69
2022/06/14 05:38:07;;;;;;;19.88;7.68;;;;;;;9.81;100.00;102380.44;5207607;28;20022;-69
2022/06/14 05:40:44;;;;;;;19.48;7.22;;;;;;;9.99;100.00;102383.44;5212680;28;20100;-69
2022/06/14 05:43:38;;;;;;;16.67;6.85;;;;;;;10.16;100.00;102377.56;5205505;28;20517;-68
2022/06/14 05:46:15;;;;;;;24.30;6.43;;;;;;;10.36;100.00;102386.69;5205495;28;20109;-69
2022/06/14 05:48:50;;;;;;;17.33;7.22;;;;;;;10.54;100.00;102387.84;5205506;28;20021;-68
2022/06/14 05:51:25;;;;;;;12.73;5.05;;;;;;;10.76;100.00;102392.25;5205734;28;20055;-68
2022/06/14 05:54:03;;;;;;;11.25;5.00;;;;;;;10.98;100.00;102391.25;5218377;28;20110;-68
2022/06/14 05:56:42;;;;;;;17.17;5.30;;;;;;;11.28;100.00;102386.91;5215503;28;20025;-69
2022/06/14 05:59:18;;;;;;;14.90;5.15;;;;;;;11.76;100.00;102395.19;5219393;28;20040;-69
2022/06/14 06:02:09;;;;;;;13.73;5.72;;;;;;;12.55;100.00;102392.53;5206357;28;20152;-69
2022/06/14 06:04:47;;;;;;;17.23;5.90;;;;;;;13.58;100.00;102390.94;5224647;28;20048;-69
2022/06/14 06:07:24;;;;;;;14.75;4.25;;;;;;;14.64;100.00;102387.56;5206012;28;20022;-69
2022/06/14 06:10:03;;;;;;;14.02;4.35;;;;;;;15.60;100.00;102382.13;5205979;28;20025;-69
2022/06/14 06:12:40;;;;;;;10.93;4.35;;;;;;;16.25;100.00;102395.06;5215597;28;20035;-69
2022/06/14 06:15:29;;;;;;;18.95;4.88;;;;;;;16.97;100.00;102385.31;5208724;28;20043;-69
2022/06/14 06:18:08;;;;;;;14.52;3.80;;;;;;;17.57;100.00;102389.41;5208048;28;20025;-69
2022/06/14 06:20:57;;;;;;;12.60;3.58;;;;;;;17.96;100.00;102386.72;5214052;28;20029;-69
2022/06/14 06:23:38;;;;;;;13.18;3.83;;;;;;;18.42;100.00;102386.78;5211207;28;20049;-69
2022/06/14 06:26:15;;;;;;;13.65;3.20;;;;;;;18.67;100.00;102389.31;5210701;28;20026;-70
2022/06/14 06:29:05;;;;;;;13.13;2.90;;;;;;;18.94;100.00;102386.06;5204811;28;20397;-69
2022/06/14 06:31:38;;;;;;;14.20;3.35;;;;;;;19.11;100.00;102384.84;5217761;28;20040;-69
2022/06/14 06:34:11;;;;;;;7.28;3.13;;;;;;;19.25;100.00;102385.91;5220087;28;20457;-70
2022/06/14 06:36:47;;;;;;;13.38;4.15;;;;;;;19.63;100.00;102396.75;5204487;28;20025;-69
2022/06/14 06:39:53;;;;;;;8.45;2.92;;;;;;;19.60;100.00;102402.56;5216583;28;20433;-69
2022/06/14 06:42:43;;;;;;;9.77;3.25;;;;;;;19.89;99.18;102408.00;5220095;28;20053;-69
2022/06/14 06:45:31;;;;;;;10.45;2.78;;;;;;;20.09;94.97;102402.78;5204553;28;20061;-69
2022/06/14 06:48:24;;;;;;;13.15;3.88;;;;;;;20.15;100.00;102403.88;5203904;28;20108;-69
2022/06/14 06:51:02;;;;;;;11.95;3.10;;;;;;;20.27;100.00;102401.50;5207866;28;20103;-69
2022/06/14 06:53:40;;;;;;;9.35;2.55;;;;;;;20.77;91.69;102399.72;5224582;28;20510;-69
2022/06/14 06:56:16;;;;;;;8.85;2.83;;;;;;;20.93;83.75;102399.44;5223694;28;20044;-70
2022/06/14 06:59:01;;;;;;;13.18;2.92;;;;;;;20.89;95.13;102393.56;5211272;28;20473;-70
2022/06/14 07:01:36;;;;;;;8.43;2.28;;;;;;;20.54;82.58;102394.50;5224650;28;20033;-70
2022/06/14 07:04:12;;;;;;;5.93;2.33;;;;;;;20.72;87.25;102383.94;5206299;28;20025;-70
2022/06/14 07:06:49;;;;;;;8.68;1.92;;;;;;;21.16;76.96;102394.59;5203676;28;20025;-70
2022/06/14 07:09:41;;;;;;;7.45;2.25;;;;;;;21.40;72.55;102390.59;5204068;28;20025;-70
2022/06/14 07:12:19;;;;;;;8.60;1.70;;;;;;;21.53;71.83;102383.50;5213665;28;20021;-70
2022/06/14 07:14:57;;;;;;;8.82;1.83;;;;;;;21.73;72.67;102389.91;5213323;28;20022;-70
2022/06/14 07:17:34;;;;;;;12.15;2.15;;;;;;;21.89;70.62;102388.75;5213268;28;20078;-70
2022/06/14 07:20:27;;;;;;;10.15;2.20;;;;;;;21.45;72.10;102385.38;5207881;28;20029;-70
2022/06/14 07:23:21;;;;;;;8.73;2.20;;;;;;;21.51;69.76;102393.78;5215830;28;20016;-70
2022/06/14 07:26:23;;;;;;;9.00;2.30;;;;;;;21.83;78.72;102393.09;5213396;28;20076;-70
2022/06/14 07:28:58;;;;;;;6.28;2.35;;;;;;;22.55;74.47;102393.56;5212367;28;20035;-70
2022/06/14 07:31:51;;;;;;;10.18;2.10;;;;;;;22.60;68.50;102389.16;5206676;28;20102;-70
2022/06/14 07:34:22;;;;;;;10.55;2.17;;;;;;;22.54;65.77;102378.19;5210999;28;20490;-70
2022/06/14 07:37:09;;;;;;;7.85;2.15;;;;;;;22.26;65.98;102384.66;5209957;28;20044;-70
2022/06/14 07:40:14;;;;;;;5.65;2.10;;;;;;;22.15;68.47;102386.13;5206616;28;20026;-70
2022/06/14 07:43:13;;;;;;;9.40;2.30;;;;;;;22.65;70.60;102381.16;5213399;28;20597;-70
2022/06/14 07:45:48;;;;;;;11.73;2.78;;;;;;;22.97;64.23;102368.56;5210852;28;20190;-70
2022/06/14 07:48:41;;;;;;;7.05;2.13;;;;;;;22.69;64.83;102370.63;5208809;28;20025;-70
2022/06/14 07:51:46;;;;;;;11.43;2.15;;;;;;;22.66;64.51;102369.16;5206531;28;20086;-70
2022/06/14 07:54:28;;;;;;;8.38;2.15;;;;;;;22.67;64.83;102372.72;5211317;28;20044;-70
2022/06/14 07:57:08;;;;;;;8.40;2.17;;;;;;;22.36;64.78;102371.44;5210851;28;20490;-70
2022/06/14 07:59:49;;;;;;;10.80;2.13;;;;;;;22.32;66.74;102367.44;5210696;28;20479;-70
2022/06/14 08:02:30;;;;;;;10.52;2.13;;;;;;;22.44;64.60;102368.53;5206821;28;20100;-70
2022/06/14 08:05:07;;;;;;;4.28;1.67;;;;;;;22.60;62.12;102366.44;5217152;28;20524;-70
2022/06/14 08:07:39;;;;;;;7.97;1.92;;;;;;;22.56;62.88;102359.69;5209964;28;20112;-70
2022/06/14 08:10:17;;;;;;;7.55;1.95;;;;;;;22.47;63.53;102373.56;5220136;28;20032;-70
2022/06/14 08:12:51;;;;;;;7.90;2.10;;;;;;;22.79;65.38;102362.84;5218043;28;20096;-70
2022/06/14 08:15:26;;;;;;;;;;;;;;;22.89;63.41;102359.72;5209501;28;20486;-70
2022/06/14 08:18:05;;;;;;;7.40;2.22;;;;;;;23.09;62.20;102362.41;5211069;28;19909;-70
2022/06/14 08:20:51;;;;;;;7.60;2.22;;;;;;;23.41;64.65;102358.78;5209793;28;20480;-70
2022/06/14 08:23:25;;;;;;;;;;;;;;;23.18;58.79;102361.16;5207458;28;20024;-70
2022/06/14 08:26:04;;;;;;;10.77;2.47;;;;;;;23.43;63.60;102362.13;5219864;28;20371;-70
2022/06/14 08:28:54;;;;;;;9.20;2.17;;;;;;;23.69;62.15;102354.91;5207304;28;20044;-70
2022/06/14 08:31:34;;;;;;;10.88;1.90;;;;;;;23.67;57.04;102357.88;5206986;28;20029;-70
2022/06/14 08:34:12;;;;;;;6.82;2.17;;;;;;;23.30;62.13;102361.34;5219636;28;20105;-70
2022/06/14 08:37:14;;;;;;;5.80;1.85;;;;;;;22.36;64.95;102349.56;5206715;28;20033;-70
2022/06/14 08:40:24;;;;;;;8.98;1.95;;;;;;;22.27;64.29;102349.97;5206540;28;20029;-70
2022/06/14 08:43:00;;;;;;;5.28;1.50;;;;;;;23.10;62.00;102345.81;5222243;28;20033;-70
2022/06/14 08:46:08;;;;;;;7.40;2.17;;;;;;;23.81;62.49;102344.13;5214032;28;20742;-70
2022/06/14 08:48:43;;;;;;;5.38;2.00;;;;;;;24.07;62.04;102352.22;5209017;28;20083;-70
2022/06/14 08:51:25;;;;;;;10.35;2.00;;;;;;;24.54;61.36;102342.63;5216579;28;20029;-70
2022/06/14 08:54:15;;;;;;;7.18;2.30;;;;;;;24.78;60.41;102340.94;5211854;28;20116;-70
2022/06/14 08:57:04;;;;;;;4.78;2.33;;;;;;;24.68;60.02;102337.88;5222448;28;20033;-70
2022/06/14 09:00:11;;;;;;;7.80;2.22;;;;;;;25.13;59.91;102334.94;5206358;28;20029;-71
2022/06/14 09:02:41;;;;;;;7.15;2.55;;;;;;;24.98;56.66;102339.91;5206304;28;20462;-70
2022/06/14 09:05:31;;;;;;;10.65;2.72;;;;;;;24.50;55.16;102341.41;5215487;28;20033;-70
2022/06/14 09:08:13;;;;;;;5.25;2.13;;;;;;;24.38;54.49;102336.84;5208684;28;20367;-70
2022/06/14 09:11:16;;;;;;;9.63;2.33;;;;;;;24.57;56.32;102340.50;5211017;28;20038;-70
2022/06/14 09:14:24;;;;;;;11.45;2.65;;;;;;;24.78;54.76;102332.72;5209987;28;20028;-70
2022/06/14 09:17:27;;;;;;;6.80;1.67;;;;;;;24.11;55.67;102330.69;5209878;28;20505;-70
2022/06/14 09:20:03;;;;;;;8.52;1.73;;;;;;;23.89;55.90;102328.25;5208859;28;20021;-70
2022/06/14 09:22:41;;;;;;;4.93;1.48;;;;;;;23.55;52.43;102323.97;5206555;28;20021;-70
2022/06/14 09:25:44;;;;;;;8.20;2.10;;;;;;;23.69;56.53;102317.41;5208109;28;20035;-70
2022/06/14 09:28:48;;;;;;;8.00;2.03;;;;;;;23.63;55.38;102317.41;5209165;28;20201;-70
2022/06/14 09:31:25;;;;;;;6.85;1.95;;;;;;;24.83;51.13;102306.50;5205766;28;20424;-71
2022/06/14 09:34:25;;;;;;;8.75;2.20;;;;;;;24.35;57.08;102313.44;5216557;28;20507;-70
2022/06/14 09:37:24;;;;;;;9.50;2.30;;;;;;;24.16;57.13;102312.50;5205254;28;20026;-70
2022/06/14 09:40:24;;;;;;;4.95;1.80;;;;;;;24.16;54.88;102323.47;5206141;28;20443;-70
2022/06/14 09:43:32;;;;;;;8.95;1.90;;;;;;;24.12;57.74;102315.91;5220048;28;20075;-70
2022/06/14 09:46:26;;;;;;;9.18;2.65;;;;;;;24.27;53.51;102314.53;5224488;28;20410;-70
2022/06/14 09:49:15;;;;;;;9.90;2.33;;;;;;;24.05;52.02;102315.97;5214104;28;20512;-71
2022/06/14 09:52:08;;;;;;;7.43;2.10;;;;;;;23.92;52.38;102302.31;5217307;28;20048;-71
2022/06/14 09:55:15;;;;;;;8.13;1.80;;;;;;;24.48;53.62;102287.81;5206612;28;20025;-70
2022/06/14 09:57:47;;;;;;;7.78;1.95;;;;;;;24.83;54.96;102285.38;5217828;28;20033;-70
2022/06/14 10:00:54;;;;;;;12.18;2.58;;;;;;;24.27;52.31;102287.09;5217190;28;20407;-70
2022/06/14 10:04:08;;;;;;;7.95;2.10;;;;;;;23.57;53.18;102290.88;5213273;28;20418;-70
2022/06/14 10:06:57;;;;;;;11.10;2.38;;;;;;;23.66;55.14;102275.91;5214348;28;20028;-71
2022/06/14 10:13:18;;;;;;;7.03;1.98;;;;;;;23.89;53.72;102267.13;5217404;28;20028;-70
2022/06/14 10:16:14;;;;;;;6.78;2.15;;;;;;;23.59;56.23;102270.41;5204709;28;20030;-70
2022/06/14 10:19:04;;;;;;;7.57;1.95;;;;;;;23.23;55.30;102263.63;5204737;28;20021;-70
2022/06/14 10:21:59;;;;;;;6.20;2.22;;;;;;;23.56;56.10;102261.81;5204692;28;20053;-70
2022/06/14 10:25:10;;;;;;;9.80;1.63;;;;;;;23.52;55.27;102256.78;5204498;28;20522;-70
2022/06/14 10:30:50;;;;;;;6.38;1.77;;;;;;;23.72;53.77;102251.22;5204207;28;20434;-71
2022/06/14 10:33:44;;;;;;;10.02;2.53;;;;;;;23.31;53.48;102251.59;5225706;28;20358;-70
2022/06/14 10:36:47;;;;;;;6.43;2.45;;;;;;;23.26;55.65;102244.03;5205418;28;20418;-71
2022/06/14 10:39:55;;;;;;;6.50;1.95;;;;;;;23.74;53.47;102240.88;5201896;28;20519;-70
2022/06/14 10:42:33;;;;;;;7.85;1.90;;;;;;;23.23;55.18;102239.00;5224521;28;20399;-70
2022/06/14 10:45:05;;;;;;;6.05;1.70;;;;;;;23.35;56.52;102239.16;5223442;28;20048;-70
2022/06/14 10:47:51;;;;;;;5.78;1.80;;;;;;;23.66;53.08;102237.56;5213305;28;20130;-70
2022/06/14 10:50:33;;;;;;;5.80;1.70;;;;;;;23.63;53.20;102236.09;5204336;28;20025;-70
2022/06/14 10:53:40;;;;;;;5.85;1.90;;;;;;;23.00;51.56;102233.19;5204010;28;20061;-70
2022/06/14 10:56:13;;;;;;;7.28;2.13;;;;;;;23.10;56.07;102236.31;5206316;28;20591;-71
2022/06/14 10:59:01;;;;;;;7.65;1.85;;;;;;;22.80;53.06;102235.13;5204297;28;20056;-71
2022/06/14 11:01:32;;;;;;;5.97;1.58;;;;;;;23.09;55.67;102222.81;5204031;28;20399;-70
2022/06/14 11:04:24;;;;;;;6.45;1.83;;;;;;;23.26;55.33;102226.78;5203898;28;20029;-70
2022/06/14 11:07:10;;;;;;;6.20;1.85;;;;;;;23.13;53.45;102218.59;5212913;28;20079;-71
2022/06/14 11:09:59;;;;;;;5.25;2.00;;;;;;;23.22;54.93;102218.16;5224922;28;20029;-70
2022/06/14 11:12:49;;;;;;;4.75;1.40;;;;;;;23.57;53.39;102214.19;5209364;28;20033;-70
2022/06/14 11:15:35;;;;;;;5.82;1.70;;;;;;;23.80;53.41;102205.41;5204378;28;20164;-70
2022/06/14 11:18:05;;;;;;;5.43;1.75;;;;;;;23.56;51.66;102196.91;5214904;28;20029;-70
2022/06/14 11:20:47;;;;;;;5.53;1.73;;;;;;;23.48;55.44;102203.47;5203619;28;20109;-71
2022/06/14 11:23:24;;;;;;;7.95;1.70;;;;;;;23.64;53.09;102198.56;5214147;28;20032;-71
2022/06/14 11:26:13;;;;;;;6.13;2.00;;;;;;;23.86;55.00;102193.59;5211108;28;20052;-71
2022/06/14 11:28:50;;;;;;;5.78;1.63;;;;;;;23.69;52.34;102196.00;5223372;28;20393;-71
2022/06/14 11:31:36;;;;;;;5.53;2.00;;;;;;;23.87;57.16;102187.88;5203343;28;20025;-70
2022/06/14 11:34:34;;;;;;;3.85;1.38;;;;;;;24.25;55.36;102175.97;5217049;28;20025;-70
2022/06/14 11:37:23;;;;;;;5.30;1.60;;;;;;;24.42;52.68;102168.88;5203898;28;20029;-70
2022/06/14 11:40:01;;;;;;;2.95;1.45;;;;;;;24.58;52.45;102172.09;5220114;28;20021;-71
2022/06/14 11:43:11;;;;;;;3.13;1.35;;;;;;;24.29;49.33;102164.31;5213775;28;20103;-71
2022/06/14 11:45:51;;;;;;;5.30;1.40;;;;;;;24.04;48.44;102172.56;5214637;28;20082;-71
2022/06/14 11:48:31;;;;;;;4.40;1.50;;;;;;;23.90;49.04;102178.41;5216950;28;20115;-71
2022/06/14 11:51:39;;;;;;;6.03;1.73;;;;;;;24.42;47.52;102162.56;5207930;28;20158;-71
2022/06/14 11:54:35;;;;;;;6.10;1.48;;;;;;;24.37;46.67;102167.88;5207292;28;20034;-71
2022/06/14 11:57:37;;;;;;;5.85;1.35;;;;;;;23.75;50.30;102173.22;5207480;28;20057;-71
2022/06/14 12:00:30;;;;;;;4.10;1.40;;;;;;;23.45;51.19;102167.50;5222487;28;20083;-71
2022/06/14 12:03:27;;;;;;;7.60;1.50;;;;;;;23.51;51.20;102166.63;5216148;28;20502;-71
2022/06/14 12:06:08;;;;;;;4.15;1.40;;;;;;;24.06;54.54;102163.28;5206574;28;20091;-71
2022/06/14 12:09:07;;;;;;;6.80;1.52;;;;;;;24.08;50.04;102166.63;5212313;28;20050;-71
2022/06/14 12:11:40;;;;;;;7.22;1.63;;;;;;;23.81;50.88;102175.09;5211415;28;20440;-71
2022/06/14 12:14:12;;;;;;;4.32;1.48;;;;;;;23.67;50.43;102160.63;5208616;28;20444;-71
2022/06/14 12:16:48;;;;;;;6.45;1.63;;;;;;;23.41;51.20;102166.25;5209183;28;20037;-71
2022/06/14 12:19:26;;;;;;;10.30;1.90;;;;;;;23.47;51.10;102155.25;5219593;28;20032;-71
2022/06/14 12:22:26;;;;;;;3.25;1.90;;;;;;;23.66;52.76;102156.22;5207150;28;20057;-70
2022/06/14 12:28:01;;;;;;;6.38;1.98;;;;;;;23.94;53.02;102157.69;5213994;28;20037;-71
2022/06/14 12:30:34;;;;;;;7.28;1.60;;;;;;;24.02;50.12;102158.25;5227057;28;20057;-71
2022/06/14 12:33:08;;;;;;;7.45;2.22;;;;;;;23.79;50.75;102155.25;5220618;28;20048;-71
2022/06/14 12:35:58;;;;;;;7.45;1.85;;;;;;;23.53;48.83;102151.63;5218606;28;20033;-71
2022/06/14 12:38:35;;;;;;;5.13;1.73;;;;;;;23.90;50.90;102148.25;5205776;28;20025;-70
2022/06/14 12:41:17;;;;;;;6.75;1.70;;;;;;;24.12;49.00;102130.31;5212390;28;20028;-71
2022/06/14 12:44:23;;;;;;;3.92;1.42;;;;;;;24.22;51.05;102130.66;5223032;28;20057;-71
2022/06/14 12:46:55;;;;;;;6.25;1.52;;;;;;;24.26;50.21;102126.38;5211219;28;20490;-71
2022/06/14 12:49:33;;;;;;;5.07;1.77;;;;;;;24.29;54.78;102125.09;5205353;28;20112;-71
2022/06/14 12:52:12;;;;;;;6.13;2.00;;;;;;;24.25;50.73;102112.91;5218712;28;20021;-71
2022/06/14 12:54:46;;;;;;;12.05;1.80;;;;;;;24.61;50.55;102117.59;5217930;28;20028;-71